Flight Track Log - Related Links

Times and Time Zones

All times are in EDT time to prevent confusion due to time zone crossing. See the N190SS flight status page for this flight to view local times or setup timezone preferences in your user account.

Time Position Orientation Groundspeed Altitude Reporting Facility
EDT Latitude Longitude Course Direction KTS MPH feet Rate Location/Type
Sun 07:54:33 PM 34.1861 -117.3192 313° West 199 229 12,600  Level Los Angeles Center
Sun 07:59:33 PM 34.3756 -117.5658 308° West 205 236 16,500 650 Climbing Los Angeles Center
Sun 08:00:33 PM 34.4144 -117.6269 303° West 217 250 16,500  Level Los Angeles Center
Sun 08:01:33 PM 34.4511 -117.6956 300° West 232 267 16,500  Level Los Angeles Center
Sun 08:02:33 PM 34.4856 -117.7669 297° West 239 275 16,500  Level Los Angeles Center
Sun 08:03:33 PM 34.5181 -117.8431 300° West 244 281 16,500  Level Los Angeles Center
Sun 08:04:33 PM 34.5525 -117.9169 296° West 249 287 16,500  Level Los Angeles Center
Sun 08:05:33 PM 34.5825 -117.9908 300° West 249 287 16,500  Level Los Angeles Center
Sun 08:06:33 PM 34.6169 -118.0647 298° West 249 287 16,500  Level Los Angeles Center
Sun 08:07:33 PM 34.6511 -118.1439 303° West 249 287 16,500  Level Los Angeles Center
Sun 08:08:33 PM 34.6894 -118.2156 302° West 249 287 16,500  Level Los Angeles Center
Sun 08:09:33 PM 34.7258 -118.2872 301° West 249 287 16,500  Level Los Angeles Center
Sun 08:10:33 PM 34.7619 -118.3614 304° West 249 287 16,500  Level Los Angeles Center
Sun 08:11:33 PM 34.8003 -118.4308 302° West 249 287 16,500  Level Los Angeles Center
Sun 08:12:33 PM 34.8325 -118.4925 313° West 249 287 16,500  Level Los Angeles Center
Sun 08:13:33 PM 34.8794 -118.5544 317° Northwest 249 287 16,500  Level Los Angeles Center
Sun 08:14:33 PM 34.9344 -118.6169 314° West 249 287 16,500  Level Los Angeles Center
Sun 08:15:33 PM 34.9811 -118.6767 315° West 249 287 16,500  Level Los Angeles Center
Sun 08:16:33 PM 35.0300 -118.7367 315° West 249 287 16,500  Level Los Angeles Center
Sun 08:17:33 PM 35.0767 -118.7939 314° West 249 287 16,500  Level Los Angeles Center
Sun 08:18:33 PM 35.1256 -118.8564 315° West 249 287 16,500  Level Los Angeles Center
Sun 08:19:33 PM 35.1742 -118.9164 310° West 249 287 16,500  Level Los Angeles Center
Sun 08:20:33 PM 35.2167 -118.9789 313° West 249 287 16,500  Level Los Angeles Center
Sun 08:21:33 PM 35.2653 -119.0417 310° West 249 287 16,500  Level Los Angeles Center
Sun 08:22:33 PM 35.3094 -119.1069 314° West 249 287 16,500  Level Los Angeles Center
Sun 08:23:33 PM 35.3561 -119.1672 312° West 249 287 16,500  Level Los Angeles Center
Sun 08:24:33 PM 35.4025 -119.2300 310° West 249 287 16,500  Level Los Angeles Center
Sun 08:25:33 PM 35.4467 -119.2956 310° West 249 287 16,500  Level Los Angeles Center
Sun 08:26:33 PM 35.4928 -119.3636 312° West 249 287 16,500  Level Los Angeles Center
Sun 08:27:33 PM 35.5392 -119.4267 311° West 249 287 16,500  Level Los Angeles Center
Sun 08:28:33 PM 35.5853 -119.4925 310° West 249 287 16,500  Level Los Angeles Center
Sun 08:29:33 PM 35.6294 -119.5583 310° West 249 287 16,500  Level Los Angeles Center
Sun 08:30:33 PM 35.6656 -119.6108 311° West 249 287 16,500  Level Los Angeles Center
Sun 08:32:21 PM 35.7558 -119.7403 311° West 248 285 16,500  Level Oakland Center
Sun 08:33:22 PM 35.8025 -119.8061 310° West 248 285 16,500  Level Oakland Center
Sun 08:34:21 PM 35.8469 -119.8719 312° West 253 291 16,500  Level Oakland Center
Sun 08:35:22 PM 35.8914 -119.9331 312° West 253 291 16,500  Level Oakland Center
Sun 08:36:22 PM 35.9356 -119.9939 312° West 253 291 16,500  Level Oakland Center
Sun 08:37:21 PM 35.9800 -120.0550 313° West 243 280 16,500  Level Oakland Center
Sun 08:38:21 PM 36.0264 -120.1161 313° West 243 280 16,500 50 Level Oakland Center
Sun 08:39:21 PM 36.0706 -120.1747 316° Northwest 238 274 16,600 50 Climbing Oakland Center
Sun 08:40:21 PM 36.1189 -120.2333 313° West 238 274 16,600  Level Oakland Center
Sun 08:41:22 PM 36.1631 -120.2919 314° West 238 274 16,600  Level Oakland Center
Sun 08:42:21 PM 36.2114 -120.3533 313° West 238 274 16,600  Level Oakland Center
Sun 08:43:21 PM 36.2556 -120.4122 312° West 238 274 16,600 -50 Level Oakland Center
Sun 08:44:22 PM 36.3017 -120.4761 314° West 238 274 16,500  Descending Oakland Center
Sun 08:45:21 PM 36.3436 -120.5300 315° West 238 274 16,600 50 Climbing Oakland Center
Sun 08:46:21 PM 36.3917 -120.5892 315° West 238 274 16,600  Level Oakland Center
Sun 08:47:21 PM 36.4378 -120.6458 312° West 238 274 16,600  Level Oakland Center
Sun 08:48:21 PM 36.4817 -120.7075 314° West 238 274 16,600  Level Oakland Center
Sun 08:49:21 PM 36.5297 -120.7694 310° West 238 274 16,600  Level Oakland Center
Sun 08:50:21 PM 36.5717 -120.8314 310° West 238 274 16,600  Level Oakland Center
Sun 08:51:22 PM 36.6156 -120.8958 313° West 238 274 16,600  Level Oakland Center
Sun 08:52:21 PM 36.6614 -120.9581 309° West 243 280 16,600 -101 Level Oakland Center
Sun 08:53:21 PM 36.7053 -121.0253 311° West 243 280 16,400 -400 Descending Oakland Center
Sun 08:54:21 PM 36.7511 -121.0903 309° West 243 280 15,800 -600 Descending Oakland Center
Sun 08:55:21 PM 36.7969 -121.1603 307° West 255 293 15,200 -550 Descending Oakland Center
Sun 08:56:21 PM 36.8406 -121.2331 308° West 255 293 14,700 -600 Descending Oakland Center
Sun 08:57:21 PM 36.8842 -121.3033 308° West 261 300 14,000 -1,065 Descending Oakland Center
Sun 08:58:25 PM 36.9333 -121.3833 310° West 261 300 12,500 -1,131 Descending Northern Cal TRACON
Sun 09:01:25 PM 37.0667 -121.5833 307° West 229 264 9,400 -867 Descending Northern Cal TRACON
Sun 09:07:32 PM 37.2833 -121.9500 312° West 192 221 4,600 -683 Descending Northern Cal TRACON
Sun 09:12:33 PM 37.4500 -122.1833 322° Northwest 148 170 1,800 -598 Descending Northern Cal TRACON
Sun 09:13:33 PM 37.4833 -122.2167 318° Northwest 126 145 1,000 -800 Descending Northern Cal TRACON
Sun 09:21:32 PM 37.8460 -122.6372 137° Southeast  Level Estimated
Sun 09:22:32 PM 37.5000 -122.2333 137° Southeast  Level FlightAware Approximate

Login

Don't have an account? Register now (free) for customized features, flight alerts, and more!